createdAt,value
2023-02-09T00:01:26.451Z,7.30
2023-02-09T00:06:31.635Z,7.45
2023-02-09T00:11:55.653Z,7.00
2023-02-09T00:16:59.492Z,7.10
2023-02-09T00:22:06.688Z,6.70
2023-02-09T00:27:10.749Z,6.10
2023-02-09T00:32:14.579Z,7.10
2023-02-09T00:37:19.706Z,7.87
2023-02-09T00:42:23.451Z,6.87
2023-02-09T00:47:28.022Z,7.90
2023-02-09T00:52:33.176Z,8.25
2023-02-09T00:57:37.079Z,8.05
2023-02-09T01:02:41.036Z,7.20
2023-02-09T01:07:46.097Z,8.43
2023-02-09T01:12:52.606Z,8.43
2023-02-09T01:17:56.381Z,8.27
2023-02-09T01:23:03.474Z,7.95
2023-02-09T01:28:07.356Z,8.02
2023-02-09T01:33:11.126Z,7.75
2023-02-09T01:38:16.244Z,7.43
2023-02-09T01:43:20.148Z,8.40
2023-02-09T01:48:29.464Z,7.40
2023-02-09T01:53:35.037Z,7.47
2023-02-09T01:58:40.347Z,7.90
2023-02-09T02:03:44.878Z,7.55
2023-02-09T02:08:56.533Z,7.68
2023-02-09T02:14:00.599Z,7.53
2023-02-09T02:19:32.832Z,8.00
2023-02-09T02:24:57.021Z,8.57
2023-02-09T02:30:17.298Z,7.65
2023-02-09T02:35:33.108Z,8.13
2023-02-09T02:40:48.879Z,8.52
2023-02-09T02:45:58.463Z,7.18
2023-02-09T02:51:07.255Z,8.10
2023-02-09T02:56:16.393Z,7.87
2023-02-09T03:01:24.721Z,7.93
2023-02-09T03:06:32.406Z,7.85
2023-02-09T03:11:40.159Z,6.80
2023-02-09T03:16:47.191Z,5.47
2023-02-09T03:21:56.917Z,7.50
2023-02-09T03:27:05.796Z,7.30
2023-02-09T03:32:10.343Z,7.65
2023-02-09T03:37:15.656Z,8.60
2023-02-09T03:42:19.414Z,7.78
2023-02-09T03:47:23.148Z,7.60
2023-02-09T03:52:28.238Z,7.65
2023-02-09T03:57:32.018Z,7.32
2023-02-09T04:02:35.821Z,6.90
2023-02-09T04:07:41.082Z,7.82
2023-02-09T04:12:44.809Z,7.37
2023-02-09T04:17:50.759Z,6.12
2023-02-09T04:22:55.948Z,6.82
2023-02-09T04:27:59.745Z,6.82
2023-02-09T04:33:03.542Z,7.07
2023-02-09T04:38:08.649Z,6.95
2023-02-09T04:43:12.507Z,7.03
2023-02-09T04:48:17.924Z,6.70
2023-02-09T04:53:23.535Z,7.37
2023-02-09T04:58:45.023Z,6.75
2023-02-09T05:03:48.845Z,7.03
2023-02-09T05:08:53.965Z,6.65
2023-02-09T05:13:57.784Z,7.00
2023-02-09T05:19:01.580Z,7.22
2023-02-09T05:24:07.634Z,6.57
2023-02-09T05:29:11.471Z,6.40
2023-02-09T05:34:15.196Z,6.53
2023-02-09T05:39:20.441Z,6.45
2023-02-09T05:44:24.624Z,7.78
2023-02-09T05:49:28.396Z,7.22
2023-02-09T05:54:34.121Z,7.78
2023-02-09T05:59:37.902Z,7.60
2023-02-09T06:04:41.731Z,7.97
2023-02-09T06:09:46.819Z,7.25
2023-02-09T06:14:50.552Z,7.18
2023-02-09T06:19:54.306Z,6.53
2023-02-09T06:24:59.464Z,7.68
2023-02-09T06:30:03.305Z,8.68
2023-02-09T06:35:07.529Z,7.50
2023-02-09T06:40:13.726Z,8.38
2023-02-09T06:45:18.531Z,9.40
2023-02-09T06:50:22.334Z,8.30
2023-02-09T06:55:27.740Z,8.02
2023-02-09T07:00:32.100Z,8.68
2023-02-09T07:05:35.847Z,8.38
2023-02-09T07:10:42.737Z,7.82
2023-02-09T07:15:46.510Z,8.82
2023-02-09T07:20:55.118Z,8.02
2023-02-09T07:26:04.264Z,7.72
2023-02-09T07:31:10.729Z,8.20
2023-02-09T07:36:16.475Z,9.27
2023-02-09T07:41:25.162Z,8.93
2023-02-09T07:46:28.929Z,9.32
2023-02-09T07:51:34.276Z,7.78
2023-02-09T07:56:39.421Z,8.40
2023-02-09T08:01:43.495Z,8.73
2023-02-09T08:06:54.449Z,9.35
2023-02-09T08:12:04.006Z,10.43
2023-02-09T08:17:21.403Z,9.10
2023-02-09T08:22:29.400Z,7.45
2023-02-09T08:32:38.148Z,9.38
2023-02-09T08:37:42.022Z,9.50
2023-02-09T08:42:47.124Z,8.90
2023-02-09T08:47:51.212Z,9.68
2023-02-09T08:52:58.019Z,9.80
2023-02-09T08:58:03.109Z,10.80
2023-02-09T09:03:06.956Z,9.48
2023-02-09T09:08:10.786Z,9.55
2023-02-09T09:13:15.984Z,10.00
2023-02-09T09:18:20.083Z,10.30
2023-02-09T09:23:23.938Z,9.85
2023-02-09T09:28:29.386Z,10.02
2023-02-09T09:33:33.342Z,10.50
2023-02-09T09:38:38.656Z,10.60
2023-02-09T09:43:44.072Z,10.30
2023-02-09T09:48:51.905Z,10.05
2023-02-09T09:53:57.378Z,11.30
2023-02-09T09:59:02.891Z,10.75
2023-02-09T10:04:14.400Z,10.80
2023-02-09T10:09:30.042Z,10.38
2023-02-09T10:14:37.435Z,11.20
2023-02-09T10:19:41.450Z,11.57
2023-02-09T10:24:45.308Z,11.25
2023-02-09T10:29:50.431Z,11.27
2023-02-09T10:34:56.950Z,11.02
2023-02-09T10:40:08.928Z,11.43
2023-02-09T10:45:26.410Z,11.60
2023-02-09T10:50:30.428Z,11.67
2023-02-09T10:55:37.076Z,12.15
2023-02-09T11:00:50.144Z,12.43
2023-02-09T11:06:03.412Z,13.57
2023-02-09T11:11:12.128Z,14.15
2023-02-09T11:16:45.417Z,14.23
2023-02-09T11:22:01.753Z,14.20
2023-02-09T11:27:13.655Z,14.25
2023-02-09T11:32:21.674Z,15.30
2023-02-09T11:37:31.586Z,14.50
2023-02-09T11:42:47.013Z,14.55
2023-02-09T11:48:01.717Z,15.38
2023-02-09T11:53:13.157Z,14.90
2023-02-09T11:58:32.042Z,15.63
2023-02-09T12:03:37.190Z,15.43
2023-02-09T12:09:04.173Z,14.87
2023-02-09T12:14:19.376Z,14.00
2023-02-09T12:19:35.383Z,15.18
2023-02-09T12:24:41.424Z,16.48
2023-02-09T12:29:45.197Z,15.20
2023-02-09T12:34:52.386Z,16.25
2023-02-09T12:40:22.564Z,17.50
2023-02-09T12:45:36.842Z,19.55
2023-02-09T12:50:54.257Z,18.25
2023-02-09T12:56:24.092Z,18.40
2023-02-09T13:02:01.181Z,17.48
2023-02-09T13:07:13.862Z,17.33
2023-02-09T13:12:21.176Z,18.67
2023-02-09T13:17:36.190Z,19.05
2023-02-09T13:22:57.605Z,19.35
2023-02-09T13:28:10.674Z,18.67
2023-02-09T13:33:28.253Z,18.20
2023-02-09T13:38:35.937Z,19.53
2023-02-09T13:43:40.462Z,17.23
2023-02-09T13:48:44.256Z,17.15
2023-02-09T13:53:58.987Z,17.52
2023-02-09T13:59:03.020Z,18.70
2023-02-09T14:04:12.625Z,19.73
2023-02-09T14:09:21.878Z,18.77
2023-02-09T14:14:49.654Z,17.95
2023-02-09T14:19:54.337Z,19.58
2023-02-09T14:24:59.716Z,18.85
2023-02-09T14:30:03.530Z,18.77
2023-02-09T14:35:18.318Z,20.17
2023-02-09T14:40:29.920Z,19.55
2023-02-09T14:45:39.942Z,20.52
2023-02-09T14:50:43.728Z,20.02
2023-02-09T14:55:49.003Z,21.55
2023-02-09T15:00:54.311Z,20.23
2023-02-09T15:06:00.204Z,19.98
2023-02-09T15:11:28.157Z,20.00
2023-02-09T15:16:32.625Z,21.42
2023-02-09T15:21:36.409Z,20.50
2023-02-09T15:26:41.671Z,19.87
2023-02-09T15:31:45.523Z,21.45
2023-02-09T15:36:49.435Z,21.25
2023-02-09T15:42:12.196Z,20.62
2023-02-09T15:47:33.597Z,20.17
2023-02-09T15:52:37.360Z,20.42
2023-02-09T15:57:42.542Z,21.77
2023-02-09T16:02:47.826Z,22.23
2023-02-09T16:07:52.994Z,21.58
2023-02-09T16:12:58.439Z,20.05
2023-02-09T16:18:02.243Z,21.27
2023-02-09T16:23:19.890Z,20.42
2023-02-09T16:28:26.149Z,21.75
2023-02-09T16:33:29.981Z,20.30
2023-02-09T16:38:33.713Z,20.95
2023-02-09T16:43:38.762Z,22.33
2023-02-09T16:48:46.629Z,21.98
2023-02-09T16:53:52.451Z,23.25
2023-02-09T16:58:57.606Z,22.35
2023-02-09T17:04:03.264Z,22.15
2023-02-09T17:09:15.064Z,21.92
2023-02-09T17:14:20.166Z,22.05
2023-02-09T17:19:23.963Z,23.12
2023-02-09T17:24:27.693Z,21.73
2023-02-09T17:29:33.867Z,23.65
2023-02-09T17:34:37.671Z,23.30
2023-02-09T17:39:41.835Z,24.15
2023-02-09T17:44:47.074Z,22.27
2023-02-09T17:49:51.068Z,22.83
2023-02-09T17:54:54.855Z,23.50
2023-02-09T18:00:00.024Z,24.85
2023-02-09T18:05:03.989Z,25.15
2023-02-09T18:10:08.835Z,24.50
2023-02-09T18:15:22.460Z,25.73
2023-02-09T18:20:29.270Z,25.92
2023-02-09T18:25:35.795Z,27.98
2023-02-09T18:30:41.201Z,27.33
2023-02-09T18:35:46.441Z,25.15
2023-02-09T18:40:51.700Z,26.35
2023-02-09T18:45:56.941Z,26.33
2023-02-09T18:51:00.972Z,24.85
2023-02-09T18:56:05.433Z,27.17
2023-02-09T19:01:12.512Z,28.55
2023-02-09T19:06:16.414Z,26.55
2023-02-09T19:11:22.752Z,27.58
2023-02-09T19:16:28.091Z,29.50
2023-02-09T19:21:32.455Z,28.12
2023-02-09T19:26:36.310Z,31.37
2023-02-09T19:31:41.764Z,30.88
2023-02-09T19:36:45.788Z,29.20
2023-02-09T19:41:49.538Z,27.83
2023-02-09T19:46:54.720Z,28.35
2023-02-09T19:51:58.948Z,29.00
2023-02-09T19:57:04.515Z,28.50
2023-02-09T20:02:11.382Z,33.28
2023-02-09T20:07:15.648Z,34.50
2023-02-09T20:12:21.862Z,32.70
2023-02-09T20:17:28.082Z,34.47
2023-02-09T20:22:32.374Z,44.13
2023-02-09T20:27:36.251Z,44.22
2023-02-09T20:32:41.673Z,45.00
2023-02-09T20:37:45.458Z,37.88
2023-02-09T20:43:07.091Z,33.35
2023-02-09T20:48:12.226Z,30.35
2023-02-09T20:53:15.951Z,32.95
2023-02-09T20:58:20.173Z,31.62
2023-02-09T21:03:25.356Z,29.35
2023-02-09T21:08:29.181Z,32.72
2023-02-09T21:13:32.978Z,34.70
2023-02-09T21:18:38.738Z,32.75
2023-02-09T21:23:42.924Z,33.47
2023-02-09T21:28:48.489Z,32.25
2023-02-09T21:33:53.760Z,35.08
2023-02-09T21:38:57.474Z,34.97
2023-02-09T21:44:01.483Z,34.75
2023-02-09T21:49:07.149Z,34.90
2023-02-09T21:54:14.153Z,36.30
2023-02-09T21:59:18.070Z,34.60
2023-02-09T22:04:23.199Z,37.35
2023-02-09T22:09:27.049Z,37.65
2023-02-09T22:14:31.298Z,37.47
2023-02-09T22:19:36.678Z,38.72
2023-02-09T22:24:40.486Z,39.42
2023-02-09T22:29:45.799Z,44.40
2023-02-09T22:34:50.934Z,43.22
2023-02-09T22:39:54.666Z,41.63
2023-02-09T22:44:58.428Z,37.80
2023-02-09T22:50:03.550Z,40.28
2023-02-09T22:55:07.876Z,37.92
2023-02-09T23:00:14.204Z,38.15
2023-02-09T23:05:21.561Z,40.78
2023-02-09T23:10:25.336Z,39.55
2023-02-09T23:15:29.157Z,40.35
2023-02-09T23:20:34.406Z,42.47
2023-02-09T23:25:38.147Z,41.90
2023-02-09T23:30:41.846Z,38.38
2023-02-09T23:35:47.233Z,43.20
2023-02-09T23:40:51.146Z,40.35
2023-02-09T23:45:55.043Z,39.65
2023-02-09T23:51:01.281Z,38.50
2023-02-09T23:56:06.262Z,42.35
